createdAt,value
2022-11-20T00:01:31.943Z,61.57
2022-11-20T00:03:58.185Z,60.92
2022-11-20T00:06:24.465Z,60.94
2022-11-20T00:08:50.712Z,61.10
2022-11-20T00:11:16.973Z,61.38
2022-11-20T00:13:43.245Z,61.53
2022-11-20T00:16:09.476Z,61.50
2022-11-20T00:18:35.766Z,61.79
2022-11-20T00:21:02.010Z,61.78
2022-11-20T00:23:28.270Z,62.08
2022-11-20T00:25:54.541Z,62.17
2022-11-20T00:28:20.767Z,62.01
2022-11-20T00:30:47.061Z,62.15
2022-11-20T00:33:13.323Z,61.90
2022-11-20T00:35:39.569Z,61.81
2022-11-20T00:38:05.833Z,61.50
2022-11-20T00:40:32.074Z,61.72
2022-11-20T00:42:58.320Z,61.68
2022-11-20T00:45:24.553Z,61.81
2022-11-20T00:47:50.786Z,62.22
2022-11-20T00:50:17.022Z,61.99
2022-11-20T00:52:43.258Z,61.78
2022-11-20T00:55:09.491Z,62.13
2022-11-20T00:57:35.725Z,62.08
2022-11-20T01:00:01.953Z,61.99
2022-11-20T01:02:28.213Z,62.20
2022-11-20T01:04:54.466Z,62.13
2022-11-20T01:07:20.794Z,61.94
2022-11-20T01:09:47.099Z,61.92
2022-11-20T01:12:13.352Z,62.14
2022-11-20T01:14:39.586Z,62.25
2022-11-20T01:17:05.817Z,62.27
2022-11-20T01:19:32.084Z,62.38
2022-11-20T01:21:58.329Z,62.66
2022-11-20T01:24:24.558Z,62.54
2022-11-20T01:26:50.817Z,62.17
2022-11-20T01:29:17.061Z,61.83
2022-11-20T01:31:43.307Z,61.66
2022-11-20T01:34:09.558Z,61.51
2022-11-20T01:36:35.809Z,61.69
2022-11-20T01:39:02.050Z,61.68
2022-11-20T01:41:28.274Z,61.76
2022-11-20T01:43:54.529Z,61.70
2022-11-20T01:46:20.781Z,61.68
2022-11-20T01:48:47.029Z,61.76
2022-11-20T01:51:13.282Z,61.32
2022-11-20T01:53:39.514Z,61.31
2022-11-20T01:56:05.782Z,61.69
2022-11-20T01:58:32.062Z,61.36
2022-11-20T02:00:58.319Z,61.56
2022-11-20T02:03:24.613Z,61.47
2022-11-20T02:05:50.893Z,61.58
2022-11-20T02:08:17.148Z,61.49
2022-11-20T02:10:43.395Z,61.27
2022-11-20T02:13:09.621Z,61.78
2022-11-20T02:15:35.859Z,61.46
2022-11-20T02:18:02.108Z,61.16
2022-11-20T02:20:28.374Z,60.99
2022-11-20T02:22:54.634Z,60.92
2022-11-20T02:25:20.866Z,60.43
2022-11-20T02:27:47.134Z,60.52
2022-11-20T02:30:13.404Z,60.23
2022-11-20T02:32:39.657Z,59.85
2022-11-20T02:35:05.960Z,59.83
2022-11-20T02:37:32.197Z,60.05
2022-11-20T02:39:58.433Z,59.87
2022-11-20T02:42:24.669Z,60.10
2022-11-20T02:44:50.909Z,59.87
2022-11-20T02:47:17.191Z,59.95
2022-11-20T02:49:43.457Z,59.64
2022-11-20T02:52:09.689Z,59.78
2022-11-20T02:54:35.964Z,60.15
2022-11-20T02:57:02.190Z,59.90
2022-11-20T02:59:28.461Z,60.19
2022-11-20T03:01:54.714Z,60.28
2022-11-20T03:04:20.953Z,60.35
2022-11-20T03:06:47.215Z,60.51
2022-11-20T03:09:13.446Z,60.60
2022-11-20T03:11:39.706Z,60.33
2022-11-20T03:14:06.042Z,60.55
2022-11-20T03:16:32.280Z,60.90
2022-11-20T03:18:58.520Z,60.22
2022-11-20T03:21:24.765Z,60.62
2022-11-20T03:23:51.030Z,60.88
2022-11-20T03:26:17.385Z,60.30
2022-11-20T03:28:43.613Z,59.79
2022-11-20T03:31:09.912Z,59.81
2022-11-20T03:33:36.156Z,60.10
2022-11-20T03:36:02.422Z,60.07
2022-11-20T03:38:28.655Z,59.95
2022-11-20T03:40:54.882Z,59.39
2022-11-20T03:43:21.110Z,59.71
2022-11-20T03:45:47.349Z,59.52
2022-11-20T03:48:13.600Z,59.35
2022-11-20T03:50:39.892Z,58.93
2022-11-20T03:53:06.138Z,59.03
2022-11-20T03:55:32.369Z,59.08
2022-11-20T03:57:58.628Z,59.25
2022-11-20T04:00:24.849Z,59.43
2022-11-20T04:02:51.107Z,59.38
2022-11-20T04:05:17.341Z,59.31
2022-11-20T04:07:43.571Z,59.24
2022-11-20T04:10:09.809Z,59.28
2022-11-20T04:12:36.052Z,59.09
2022-11-20T04:15:02.308Z,58.68
2022-11-20T04:17:28.560Z,58.85
2022-11-20T04:19:54.790Z,59.17
2022-11-20T04:22:21.029Z,59.59
2022-11-20T04:24:47.259Z,59.86
2022-11-20T04:27:13.518Z,59.91
2022-11-20T04:29:39.741Z,59.41
2022-11-20T04:32:05.972Z,59.31
2022-11-20T04:34:32.225Z,59.69
2022-11-20T04:36:58.575Z,59.71
2022-11-20T04:39:24.897Z,60.43
2022-11-20T04:41:51.182Z,60.81
2022-11-20T04:44:17.525Z,60.39
2022-11-20T04:46:43.755Z,59.34
2022-11-20T04:49:09.982Z,59.03
2022-11-20T04:51:36.246Z,58.19
2022-11-20T04:54:02.516Z,58.70
2022-11-20T04:56:28.755Z,58.71
2022-11-20T04:58:55.023Z,58.89
2022-11-20T05:01:21.307Z,58.74
2022-11-20T05:03:47.606Z,59.03
2022-11-20T05:06:13.860Z,59.27
2022-11-20T05:08:40.087Z,59.36
2022-11-20T05:11:06.360Z,58.99
2022-11-20T05:13:32.621Z,59.00
2022-11-20T05:15:58.938Z,60.25
2022-11-20T05:18:25.196Z,60.27
2022-11-20T05:20:51.529Z,60.74
2022-11-20T05:23:17.762Z,61.11
2022-11-20T05:25:44.010Z,61.45
2022-11-20T05:28:10.248Z,61.45
2022-11-20T05:30:36.501Z,61.57
2022-11-20T05:33:02.753Z,61.82
2022-11-20T05:35:28.998Z,61.77
2022-11-20T05:37:55.366Z,62.36
2022-11-20T05:40:21.598Z,62.27
2022-11-20T05:42:47.867Z,62.04
2022-11-20T05:45:14.124Z,62.69
2022-11-20T05:47:40.385Z,62.60
2022-11-20T05:50:06.622Z,62.44
2022-11-20T05:52:32.868Z,61.58
2022-11-20T05:54:59.174Z,62.16
2022-11-20T05:57:25.429Z,62.47
2022-11-20T05:59:51.675Z,62.92
2022-11-20T06:02:17.958Z,63.08
2022-11-20T06:04:44.264Z,62.98
2022-11-20T06:07:10.585Z,63.01
2022-11-20T06:09:36.885Z,63.38
2022-11-20T06:12:03.128Z,62.92
2022-11-20T06:14:29.379Z,63.12
2022-11-20T06:16:55.606Z,62.67
2022-11-20T06:19:21.977Z,63.33
2022-11-20T06:21:48.441Z,63.59
2022-11-20T06:24:14.688Z,63.53
2022-11-20T06:26:40.935Z,63.64
2022-11-20T06:29:07.184Z,63.95
2022-11-20T06:31:33.419Z,63.48
2022-11-20T06:33:59.675Z,63.56
2022-11-20T06:36:25.936Z,63.77
2022-11-20T06:38:52.196Z,63.72
2022-11-20T06:41:18.441Z,63.44
2022-11-20T06:43:44.702Z,63.72
2022-11-20T06:46:10.941Z,63.28
2022-11-20T06:48:37.180Z,62.62
2022-11-20T06:51:03.435Z,62.47
2022-11-20T06:53:29.681Z,62.43
2022-11-20T06:55:55.929Z,62.16
2022-11-20T06:58:22.177Z,62.46
2022-11-20T07:00:48.445Z,61.80
2022-11-20T07:03:14.697Z,61.06
2022-11-20T07:05:40.940Z,61.23
2022-11-20T07:08:07.183Z,61.14
2022-11-20T07:10:33.436Z,61.23
2022-11-20T07:12:59.683Z,60.65
2022-11-20T07:15:25.922Z,60.79
2022-11-20T07:17:52.165Z,60.25
2022-11-20T07:20:18.416Z,60.50
2022-11-20T07:22:44.664Z,60.43
2022-11-20T07:25:10.899Z,60.45
2022-11-20T07:27:37.155Z,61.07
2022-11-20T07:30:03.407Z,61.63
2022-11-20T07:32:29.660Z,61.02
2022-11-20T07:34:55.897Z,61.01
2022-11-20T07:37:22.124Z,60.94
2022-11-20T07:39:48.373Z,61.12
2022-11-20T07:42:14.609Z,61.02
2022-11-20T07:44:40.869Z,60.25
2022-11-20T07:47:07.099Z,60.66
2022-11-20T07:49:33.345Z,60.94
2022-11-20T07:52:04.410Z,61.13
2022-11-20T07:54:31.476Z,61.81
2022-11-20T07:56:57.714Z,61.90
2022-11-20T07:59:24.158Z,61.30
2022-11-20T08:01:50.590Z,61.18
2022-11-20T08:04:16.825Z,60.75
2022-11-20T08:06:43.054Z,61.00
2022-11-20T08:09:09.301Z,61.17
2022-11-20T08:11:35.534Z,60.48
2022-11-20T08:14:01.793Z,61.32
2022-11-20T08:16:28.025Z,62.45
2022-11-20T08:18:54.291Z,61.47
2022-11-20T08:21:20.525Z,61.43
2022-11-20T08:23:46.768Z,60.77
2022-11-20T08:26:13.021Z,60.67
2022-11-20T08:28:39.272Z,60.72
2022-11-20T08:31:05.534Z,60.33
2022-11-20T08:33:31.773Z,60.96
2022-11-20T08:35:58.015Z,61.14
2022-11-20T08:38:24.260Z,61.04
2022-11-20T08:40:50.542Z,60.32
2022-11-20T08:43:16.806Z,61.43
2022-11-20T08:45:43.056Z,61.12
2022-11-20T08:48:09.313Z,61.07
2022-11-20T08:50:35.569Z,61.75
2022-11-20T08:53:01.820Z,61.07
2022-11-20T08:55:28.078Z,60.57
2022-11-20T08:57:54.332Z,60.91
2022-11-20T09:00:20.580Z,60.95
2022-11-20T09:02:46.817Z,61.04
2022-11-20T09:05:13.049Z,61.23
2022-11-20T09:07:39.357Z,58.74
2022-11-20T09:12:51.830Z,58.67
2022-11-20T09:15:18.087Z,58.71
2022-11-20T09:17:44.332Z,58.95
2022-11-20T09:20:10.569Z,58.42
2022-11-20T09:22:36.819Z,57.99
2022-11-20T09:25:03.071Z,57.44
2022-11-20T09:27:29.318Z,58.13
2022-11-20T09:29:55.567Z,58.02
2022-11-20T09:32:21.796Z,57.42
2022-11-20T09:34:48.040Z,56.80
2022-11-20T09:37:14.275Z,55.75
2022-11-20T09:39:40.511Z,55.34
2022-11-20T09:42:06.760Z,56.37
2022-11-20T09:44:32.995Z,56.08
2022-11-20T09:46:59.238Z,55.29
2022-11-20T09:49:31.930Z,54.19
2022-11-20T09:51:58.484Z,54.88
2022-11-20T09:54:24.728Z,55.11
2022-11-20T09:56:50.980Z,56.42
2022-11-20T09:59:17.216Z,57.68
2022-11-20T10:01:43.447Z,56.06
2022-11-20T10:04:09.694Z,56.22
2022-11-20T10:06:35.927Z,56.36
2022-11-20T10:09:02.180Z,56.26
2022-11-20T10:11:28.437Z,56.98
2022-11-20T10:13:54.683Z,55.97
2022-11-20T10:16:20.919Z,55.10
2022-11-20T10:18:47.151Z,54.41
2022-11-20T10:21:13.385Z,55.31
2022-11-20T10:23:39.630Z,54.15
2022-11-20T10:26:05.871Z,53.92
2022-11-20T10:28:32.120Z,52.74
2022-11-20T10:30:58.349Z,53.43
2022-11-20T10:33:24.602Z,52.42
2022-11-20T10:35:50.831Z,52.32
2022-11-20T10:38:17.061Z,53.44
2022-11-20T10:40:43.312Z,52.57
2022-11-20T10:43:09.566Z,53.50
2022-11-20T10:45:35.808Z,53.66
2022-11-20T10:48:02.038Z,53.32
2022-11-20T10:50:28.293Z,53.60
2022-11-20T10:52:54.519Z,54.06
2022-11-20T10:55:20.765Z,52.68
2022-11-20T10:57:46.994Z,51.92
2022-11-20T11:00:13.236Z,52.15
2022-11-20T11:02:39.484Z,51.51
2022-11-20T11:05:08.146Z,51.65
2022-11-20T11:07:37.937Z,51.14
2022-11-20T11:10:04.213Z,50.75
2022-11-20T11:12:30.448Z,50.00
2022-11-20T11:14:56.797Z,50.28
2022-11-20T11:17:23.040Z,50.58
2022-11-20T11:19:49.272Z,51.17
2022-11-20T11:22:15.521Z,49.31
2022-11-20T11:24:43.262Z,49.92
2022-11-20T11:27:13.729Z,50.32
2022-11-20T11:29:42.972Z,50.53
2022-11-20T11:32:09.202Z,49.76
2022-11-20T11:34:35.430Z,50.46
2022-11-20T11:37:01.660Z,50.58
2022-11-20T11:39:27.897Z,50.79
2022-11-20T11:41:54.142Z,50.58
2022-11-20T11:44:20.393Z,49.71
2022-11-20T11:46:46.626Z,49.45
2022-11-20T11:49:12.884Z,50.48
2022-11-20T11:51:39.128Z,51.01
2022-11-20T11:54:05.361Z,51.97
2022-11-20T11:56:31.603Z,51.24
2022-11-20T11:58:57.855Z,52.37
2022-11-20T12:01:24.096Z,52.39
2022-11-20T12:03:50.322Z,52.88
2022-11-20T12:06:16.559Z,52.34
2022-11-20T12:08:42.821Z,49.49
2022-11-20T12:11:09.114Z,51.00
2022-11-20T12:13:36.725Z,51.16
2022-11-20T12:16:02.954Z,51.28
2022-11-20T12:18:29.213Z,51.81
2022-11-20T12:20:55.457Z,50.17
2022-11-20T12:23:21.683Z,48.74
2022-11-20T12:25:47.933Z,49.30
2022-11-20T12:28:14.162Z,50.76
2022-11-20T12:30:40.390Z,50.92
2022-11-20T12:33:06.630Z,50.92
2022-11-20T12:35:33.085Z,50.86
2022-11-20T12:37:59.308Z,51.88
2022-11-20T12:40:25.538Z,51.86
2022-11-20T12:42:51.769Z,52.12
2022-11-20T12:45:17.998Z,51.20
2022-11-20T12:47:44.237Z,51.58
2022-11-20T12:50:10.493Z,51.26
2022-11-20T12:52:36.761Z,52.83
2022-11-20T12:55:03.022Z,52.60
2022-11-20T12:57:29.272Z,51.81
2022-11-20T12:59:55.511Z,50.50
2022-11-20T13:02:21.737Z,50.29
2022-11-20T13:04:47.973Z,50.04
2022-11-20T13:07:14.246Z,50.37
2022-11-20T13:09:40.506Z,50.99
2022-11-20T13:12:06.734Z,50.25
2022-11-20T13:14:32.962Z,50.47
2022-11-20T13:17:04.738Z,49.96
2022-11-20T13:19:32.215Z,51.12
2022-11-20T13:21:58.445Z,50.35
2022-11-20T13:24:25.064Z,50.26
2022-11-20T13:26:51.491Z,50.12
2022-11-20T13:29:17.723Z,49.98
2022-11-20T13:31:43.945Z,50.35
2022-11-20T13:34:10.192Z,49.69
2022-11-20T13:36:36.418Z,49.32
2022-11-20T13:39:02.647Z,49.70
2022-11-20T13:41:28.889Z,50.21
2022-11-20T13:43:55.246Z,51.54
2022-11-20T13:46:21.523Z,50.49
2022-11-20T13:48:47.752Z,50.34
2022-11-20T13:51:14.119Z,50.78
2022-11-20T13:53:40.395Z,51.25
2022-11-20T13:56:06.626Z,50.06
2022-11-20T13:58:32.872Z,50.66
2022-11-20T14:00:59.176Z,50.13
2022-11-20T14:03:51.285Z,49.28
2022-11-20T14:06:11.675Z,49.09
2022-11-20T14:08:37.920Z,48.56
2022-11-20T14:11:04.176Z,48.86
2022-11-20T14:13:30.426Z,48.80
2022-11-20T14:15:56.673Z,49.04
2022-11-20T14:18:22.923Z,48.38
2022-11-20T14:20:49.168Z,48.63
2022-11-20T14:23:15.393Z,48.88
2022-11-20T14:25:41.650Z,49.48
2022-11-20T14:28:07.883Z,50.08
2022-11-20T14:30:34.117Z,49.48
2022-11-20T14:33:00.380Z,50.56
2022-11-20T14:35:26.639Z,48.91
2022-11-20T14:37:52.866Z,48.57
2022-11-20T14:40:19.100Z,50.08
2022-11-20T14:42:45.349Z,50.61
2022-11-20T14:45:11.577Z,49.93
2022-11-20T14:47:37.809Z,49.42
2022-11-20T14:50:08.815Z,50.53
2022-11-20T14:52:36.303Z,50.46
2022-11-20T14:55:02.533Z,50.48
2022-11-20T14:57:28.759Z,50.52
2022-11-20T14:59:54.995Z,49.63
2022-11-20T15:02:21.246Z,50.11
2022-11-20T15:04:47.522Z,50.14
2022-11-20T15:07:13.814Z,49.86
2022-11-20T15:09:40.107Z,49.96
2022-11-20T15:12:06.335Z,49.79
2022-11-20T15:14:32.577Z,48.68
2022-11-20T15:16:58.838Z,49.39
2022-11-20T15:19:25.069Z,49.66
2022-11-20T15:21:51.301Z,49.94
2022-11-20T15:24:17.531Z,49.48
2022-11-20T15:26:44.820Z,50.13
2022-11-20T15:29:11.055Z,50.37
2022-11-20T15:31:37.305Z,51.20
2022-11-20T15:34:03.558Z,51.67
2022-11-20T15:36:29.800Z,51.67
2022-11-20T15:38:56.028Z,51.38
2022-11-20T15:41:22.279Z,51.64
2022-11-20T15:43:48.534Z,52.59
2022-11-20T15:46:14.788Z,53.77
2022-11-20T15:48:47.359Z,53.74
2022-11-20T15:51:14.365Z,53.50
2022-11-20T15:53:40.613Z,52.76
2022-11-20T15:56:06.849Z,52.60
2022-11-20T15:58:33.112Z,52.54
2022-11-20T16:00:59.415Z,52.83
2022-11-20T16:03:25.712Z,52.93
2022-11-20T16:05:51.942Z,52.62
2022-11-20T16:08:18.177Z,52.13
2022-11-20T16:10:44.425Z,51.96
2022-11-20T16:13:10.766Z,51.27
2022-11-20T16:15:37.000Z,51.84
2022-11-20T16:18:03.247Z,52.24
2022-11-20T16:20:29.485Z,52.40
2022-11-20T16:22:55.710Z,51.67
2022-11-20T16:25:21.962Z,52.28
2022-11-20T16:27:48.205Z,52.81
2022-11-20T16:30:14.430Z,52.94
2022-11-20T16:32:40.774Z,51.88
2022-11-20T16:35:07.017Z,52.28
2022-11-20T16:37:33.246Z,51.45
2022-11-20T16:39:59.476Z,52.43
2022-11-20T16:42:25.711Z,52.55
2022-11-20T16:44:52.146Z,52.32
2022-11-20T16:47:18.398Z,51.83
2022-11-20T16:49:44.638Z,52.07
2022-11-20T16:52:10.899Z,51.58
2022-11-20T16:54:37.153Z,52.51
2022-11-20T16:57:03.405Z,52.56
2022-11-20T16:59:29.657Z,51.59
2022-11-20T17:01:55.941Z,51.04
2022-11-20T17:04:22.610Z,51.42
2022-11-20T17:06:49.169Z,51.76
2022-11-20T17:09:15.422Z,52.12
2022-11-20T17:11:41.661Z,52.70
2022-11-20T17:14:07.887Z,52.37
2022-11-20T17:16:34.121Z,52.92
2022-11-20T17:19:03.388Z,52.73
2022-11-20T17:21:30.034Z,52.70
2022-11-20T17:23:56.300Z,52.97
2022-11-20T17:26:22.530Z,53.06
2022-11-20T17:28:48.757Z,53.19
2022-11-20T17:31:15.003Z,52.54
2022-11-20T17:33:41.268Z,52.63
2022-11-20T17:36:07.504Z,52.88
2022-11-20T17:38:33.735Z,53.02
2022-11-20T17:40:59.969Z,54.17
2022-11-20T17:43:26.203Z,53.72
2022-11-20T17:45:52.436Z,55.02
2022-11-20T17:48:18.674Z,55.27
2022-11-20T17:50:44.921Z,56.17
2022-11-20T17:53:11.166Z,54.51
2022-11-20T17:55:37.416Z,54.88
2022-11-20T17:58:03.665Z,55.09
2022-11-20T18:00:29.910Z,57.08
2022-11-20T18:02:56.153Z,57.29
2022-11-20T18:05:22.397Z,57.42
2022-11-20T18:07:48.669Z,55.23
2022-11-20T18:10:14.953Z,54.97
2022-11-20T18:12:41.198Z,55.60
2022-11-20T18:15:07.457Z,56.95
2022-11-20T18:17:33.711Z,57.40
2022-11-20T18:22:46.153Z,57.74
2022-11-20T18:25:12.417Z,56.48
2022-11-20T18:27:38.670Z,57.22
2022-11-20T18:30:04.902Z,57.86
2022-11-20T18:32:31.630Z,58.39
2022-11-20T18:34:57.905Z,59.04
2022-11-20T18:37:24.129Z,59.21
2022-11-20T18:39:50.426Z,59.50
2022-11-20T18:42:16.758Z,59.76
2022-11-20T18:44:43.008Z,59.62
2022-11-20T18:47:14.204Z,60.18
2022-11-20T18:49:41.002Z,60.31
2022-11-20T18:52:07.241Z,59.98
2022-11-20T18:54:33.466Z,60.50
2022-11-20T18:56:59.697Z,60.80
2022-11-20T18:59:25.926Z,60.61
2022-11-20T19:01:52.199Z,61.13
2022-11-20T19:04:18.442Z,61.54
2022-11-20T19:06:44.682Z,61.33
2022-11-20T19:09:10.936Z,61.33
2022-11-20T19:11:37.185Z,61.99
2022-11-20T19:14:03.431Z,61.98
2022-11-20T19:16:29.675Z,62.33
2022-11-20T19:18:57.274Z,62.35
2022-11-20T19:21:23.658Z,62.66
2022-11-20T19:23:49.911Z,63.29
2022-11-20T19:26:16.218Z,63.65
2022-11-20T19:28:42.491Z,63.10
2022-11-20T19:31:08.813Z,62.91
2022-11-20T19:33:35.046Z,64.45
2022-11-20T19:36:01.269Z,65.12
2022-11-20T19:38:27.517Z,64.69
2022-11-20T19:40:53.765Z,64.67
2022-11-20T19:43:20.011Z,64.88
2022-11-20T19:45:46.349Z,64.30
2022-11-20T19:48:12.583Z,64.13
2022-11-20T19:50:38.831Z,64.39
2022-11-20T19:53:05.094Z,64.35
2022-11-20T19:55:31.356Z,64.75
2022-11-20T19:57:57.588Z,64.36
2022-11-20T20:00:29.591Z,64.63
2022-11-20T20:02:58.488Z,64.79
2022-11-20T20:05:24.761Z,65.08
2022-11-20T20:07:51.009Z,65.09
2022-11-20T20:10:17.253Z,65.61
2022-11-20T20:12:43.497Z,65.54
2022-11-20T20:15:09.763Z,65.48
2022-11-20T20:17:36.445Z,65.63
2022-11-20T20:20:02.694Z,65.58
2022-11-20T20:22:28.931Z,65.45
2022-11-20T20:24:55.236Z,65.66
2022-11-20T20:27:21.476Z,65.46
2022-11-20T20:29:47.732Z,66.13
2022-11-20T20:32:13.964Z,66.23
2022-11-20T20:34:40.309Z,66.51
2022-11-20T20:37:06.559Z,66.66
2022-11-20T20:39:32.809Z,66.99
2022-11-20T20:41:59.048Z,66.89
2022-11-20T20:44:25.289Z,67.80
2022-11-20T20:46:51.524Z,67.43
2022-11-20T20:49:17.751Z,68.40
2022-11-20T20:51:43.991Z,67.49
2022-11-20T20:54:10.221Z,67.66
2022-11-20T20:56:36.470Z,67.18
2022-11-20T20:59:02.701Z,67.57
2022-11-20T21:01:29.148Z,67.51
2022-11-20T21:03:56.021Z,67.03
2022-11-20T21:06:22.254Z,66.91
2022-11-20T21:08:48.508Z,66.89
2022-11-20T21:11:14.782Z,66.12
2022-11-20T21:13:41.028Z,65.96
2022-11-20T21:16:07.269Z,65.88
2022-11-20T21:18:33.505Z,64.72
2022-11-20T21:20:59.749Z,64.65
2022-11-20T21:23:26.005Z,64.53
2022-11-20T21:25:52.237Z,64.01
2022-11-20T21:28:18.638Z,64.34
2022-11-20T21:30:44.894Z,64.02
2022-11-20T21:33:11.134Z,63.99
2022-11-20T21:35:37.384Z,63.44
2022-11-20T21:38:03.617Z,64.10
2022-11-20T21:40:29.861Z,64.96
2022-11-20T21:42:56.105Z,65.34
2022-11-20T21:45:22.339Z,65.77
2022-11-20T21:47:48.599Z,65.50
2022-11-20T21:50:14.825Z,66.11
2022-11-20T21:52:41.055Z,66.14
2022-11-20T21:55:07.304Z,66.82
2022-11-20T21:57:33.539Z,67.98
2022-11-20T21:59:59.769Z,67.81
2022-11-20T22:02:26.033Z,67.46
2022-11-20T22:04:52.267Z,67.29
2022-11-20T22:07:18.601Z,66.65
2022-11-20T22:09:44.914Z,66.94
2022-11-20T22:12:11.146Z,67.17
2022-11-20T22:14:37.386Z,66.93
2022-11-20T22:17:03.633Z,66.58
2022-11-20T22:19:29.886Z,66.02
2022-11-20T22:21:56.118Z,66.87
2022-11-20T22:24:22.815Z,66.62
2022-11-20T22:26:49.396Z,66.66
2022-11-20T22:29:15.644Z,66.40
2022-11-20T22:31:41.877Z,66.91
2022-11-20T22:34:08.145Z,66.32
2022-11-20T22:36:34.380Z,66.41
2022-11-20T22:39:00.629Z,66.24
2022-11-20T22:41:26.864Z,65.88
2022-11-20T22:43:53.094Z,65.70
2022-11-20T22:46:19.361Z,66.04
2022-11-20T22:48:45.609Z,65.76
2022-11-20T22:51:11.908Z,65.93
2022-11-20T22:53:38.146Z,65.36
2022-11-20T22:56:04.381Z,65.78
2022-11-20T22:58:30.640Z,65.56
2022-11-20T23:00:56.870Z,65.94
2022-11-20T23:03:23.121Z,65.89
2022-11-20T23:05:49.401Z,65.75
2022-11-20T23:08:15.631Z,65.88
2022-11-20T23:10:41.921Z,65.78
2022-11-20T23:13:08.168Z,65.85
2022-11-20T23:15:34.423Z,65.63
2022-11-20T23:18:00.676Z,66.02
2022-11-20T23:20:26.933Z,65.65
2022-11-20T23:22:53.176Z,65.67
2022-11-20T23:25:19.428Z,66.16
2022-11-20T23:27:45.667Z,66.91
2022-11-20T23:30:11.907Z,66.76
2022-11-20T23:32:38.150Z,67.42
2022-11-20T23:35:04.378Z,67.69
2022-11-20T23:37:30.611Z,67.24
2022-11-20T23:39:56.838Z,67.44
2022-11-20T23:42:23.088Z,67.18
2022-11-20T23:44:49.345Z,67.73
2022-11-20T23:47:15.578Z,67.36
2022-11-20T23:49:41.828Z,67.29
2022-11-20T23:52:08.083Z,67.47
2022-11-20T23:54:34.309Z,67.35
2022-11-20T23:57:00.562Z,67.38
2022-11-20T23:59:26.821Z,67.13
